sensor_id;sensor_type;location;lat;lon;timestamp;P1;durP1;ratioP1;P2;durP2;ratioP2
69565;SDS011;56777;55.930;37.524;2023-12-04T00:00:24;15.32;;;7.70;;
69565;SDS011;56777;55.930;37.524;2023-12-04T00:02:49;15.82;;;8.02;;
69565;SDS011;56777;55.930;37.524;2023-12-04T00:05:15;16.42;;;7.60;;
69565;SDS011;56777;55.930;37.524;2023-12-04T00:07:40;17.27;;;8.57;;
69565;SDS011;56777;55.930;37.524;2023-12-04T00:10:06;15.23;;;7.75;;
69565;SDS011;56777;55.930;37.524;2023-12-04T00:12:32;13.63;;;7.57;;
69565;SDS011;56777;55.930;37.524;2023-12-04T00:14:57;15.00;;;7.93;;
69565;SDS011;56777;55.930;37.524;2023-12-04T00:17:23;13.48;;;7.40;;
69565;SDS011;56777;55.930;37.524;2023-12-04T00:19:48;13.20;;;7.18;;
69565;SDS011;56777;55.930;37.524;2023-12-04T00:22:14;13.85;;;7.18;;
69565;SDS011;56777;55.930;37.524;2023-12-04T00:24:39;15.00;;;7.88;;
69565;SDS011;56777;55.930;37.524;2023-12-04T00:27:05;17.00;;;7.38;;
69565;SDS011;56777;55.930;37.524;2023-12-04T00:29:31;15.68;;;7.05;;
69565;SDS011;56777;55.930;37.524;2023-12-04T00:31:56;16.48;;;7.57;;
69565;SDS011;56777;55.930;37.524;2023-12-04T00:34:22;13.45;;;6.55;;
69565;SDS011;56777;55.930;37.524;2023-12-04T00:36:48;14.68;;;7.57;;
69565;SDS011;56777;55.930;37.524;2023-12-04T00:39:13;14.57;;;7.20;;
69565;SDS011;56777;55.930;37.524;2023-12-04T00:41:39;12.93;;;7.03;;
69565;SDS011;56777;55.930;37.524;2023-12-04T00:44:04;15.70;;;7.07;;
69565;SDS011;56777;55.930;37.524;2023-12-04T00:46:30;15.25;;;7.72;;
69565;SDS011;56777;55.930;37.524;2023-12-04T00:48:55;16.88;;;7.28;;
69565;SDS011;56777;55.930;37.524;2023-12-04T00:51:21;15.63;;;7.15;;
69565;SDS011;56777;55.930;37.524;2023-12-04T00:53:47;13.88;;;6.80;;
69565;SDS011;56777;55.930;37.524;2023-12-04T00:56:12;14.85;;;7.40;;
69565;SDS011;56777;55.930;37.524;2023-12-04T00:58:38;21.33;;;7.82;;
69565;SDS011;56777;55.930;37.524;2023-12-04T01:01:03;14.15;;;6.93;;
69565;SDS011;56777;55.930;37.524;2023-12-04T01:03:29;16.98;;;6.85;;
69565;SDS011;56777;55.930;37.524;2023-12-04T01:05:58;15.68;;;7.20;;
69565;SDS011;56777;55.930;37.524;2023-12-04T01:08:24;15.00;;;6.60;;
69565;SDS011;56777;55.930;37.524;2023-12-04T01:10:49;14.50;;;6.93;;
69565;SDS011;56777;55.930;37.524;2023-12-04T01:13:15;16.35;;;7.38;;
69565;SDS011;56777;55.930;37.524;2023-12-04T01:15:40;17.15;;;7.03;;
69565;SDS011;56777;55.930;37.524;2023-12-04T01:18:07;13.15;;;6.70;;
69565;SDS011;56777;55.930;37.524;2023-12-04T01:20:33;17.15;;;7.38;;
69565;SDS011;56777;55.930;37.524;2023-12-04T01:22:59;11.00;;;6.72;;
69565;SDS011;56777;55.930;37.524;2023-12-04T01:25:25;12.18;;;6.53;;
69565;SDS011;56777;55.930;37.524;2023-12-04T01:27:50;14.50;;;6.90;;
69565;SDS011;56777;55.930;37.524;2023-12-04T01:30:16;14.32;;;6.68;;
69565;SDS011;56777;55.930;37.524;2023-12-04T01:32:41;11.55;;;6.72;;
69565;SDS011;56777;55.930;37.524;2023-12-04T01:35:07;13.93;;;7.00;;
69565;SDS011;56777;55.930;37.524;2023-12-04T01:37:33;13.07;;;6.90;;
69565;SDS011;56777;55.930;37.524;2023-12-04T01:39:58;14.57;;;7.38;;
69565;SDS011;56777;55.930;37.524;2023-12-04T01:42:24;13.65;;;7.82;;
69565;SDS011;56777;55.930;37.524;2023-12-04T01:44:49;16.20;;;7.80;;
69565;SDS011;56777;55.930;37.524;2023-12-04T01:47:15;14.98;;;7.70;;
69565;SDS011;56777;55.930;37.524;2023-12-04T01:49:41;11.98;;;7.65;;
69565;SDS011;56777;55.930;37.524;2023-12-04T01:52:07;16.67;;;8.60;;
69565;SDS011;56777;55.930;37.524;2023-12-04T01:54:33;16.42;;;7.10;;
69565;SDS011;56777;55.930;37.524;2023-12-04T01:56:58;13.10;;;7.25;;
69565;SDS011;56777;55.930;37.524;2023-12-04T01:59:25;12.02;;;6.82;;
69565;SDS011;56777;55.930;37.524;2023-12-04T02:01:51;17.55;;;7.65;;
69565;SDS011;56777;55.930;37.524;2023-12-04T02:04:18;13.63;;;7.20;;
69565;SDS011;56777;55.930;37.524;2023-12-04T02:06:43;13.57;;;7.13;;
69565;SDS011;56777;55.930;37.524;2023-12-04T02:09:09;14.10;;;6.88;;
69565;SDS011;56777;55.930;37.524;2023-12-04T02:11:38;13.27;;;7.43;;
69565;SDS011;56777;55.930;37.524;2023-12-04T02:14:04;15.45;;;8.05;;
69565;SDS011;56777;55.930;37.524;2023-12-04T02:16:30;14.98;;;8.30;;
69565;SDS011;56777;55.930;37.524;2023-12-04T02:19:01;14.40;;;7.47;;
69565;SDS011;56777;55.930;37.524;2023-12-04T02:21:27;14.68;;;7.40;;
69565;SDS011;56777;55.930;37.524;2023-12-04T02:23:52;14.15;;;7.75;;
69565;SDS011;56777;55.930;37.524;2023-12-04T02:26:27;13.73;;;7.47;;
69565;SDS011;56777;55.930;37.524;2023-12-04T02:28:58;15.30;;;7.45;;
69565;SDS011;56777;55.930;37.524;2023-12-04T02:31:26;14.90;;;7.68;;
69565;SDS011;56777;55.930;37.524;2023-12-04T02:33:54;15.10;;;7.80;;
69565;SDS011;56777;55.930;37.524;2023-12-04T02:36:21;16.02;;;7.95;;
69565;SDS011;56777;55.930;37.524;2023-12-04T02:38:50;14.50;;;7.50;;
69565;SDS011;56777;55.930;37.524;2023-12-04T02:41:16;14.98;;;7.70;;
69565;SDS011;56777;55.930;37.524;2023-12-04T02:43:43;17.60;;;7.93;;
69565;SDS011;56777;55.930;37.524;2023-12-04T02:46:08;16.42;;;8.40;;
69565;SDS011;56777;55.930;37.524;2023-12-04T02:48:34;14.57;;;7.78;;
69565;SDS011;56777;55.930;37.524;2023-12-04T02:50:59;16.20;;;8.07;;
69565;SDS011;56777;55.930;37.524;2023-12-04T02:53:25;13.80;;;8.10;;
69565;SDS011;56777;55.930;37.524;2023-12-04T02:55:50;14.77;;;8.05;;
69565;SDS011;56777;55.930;37.524;2023-12-04T02:58:16;13.93;;;8.10;;
69565;SDS011;56777;55.930;37.524;2023-12-04T03:00:41;13.93;;;7.50;;
69565;SDS011;56777;55.930;37.524;2023-12-04T03:03:07;16.83;;;8.35;;
69565;SDS011;56777;55.930;37.524;2023-12-04T03:05:33;17.10;;;8.60;;
69565;SDS011;56777;55.930;37.524;2023-12-04T03:07:58;16.45;;;8.13;;
69565;SDS011;56777;55.930;37.524;2023-12-04T03:10:24;17.77;;;8.82;;
69565;SDS011;56777;55.930;37.524;2023-12-04T03:12:49;16.98;;;8.75;;
69565;SDS011;56777;55.930;37.524;2023-12-04T03:15:15;15.10;;;7.80;;
69565;SDS011;56777;55.930;37.524;2023-12-04T03:17:40;16.10;;;8.38;;
69565;SDS011;56777;55.930;37.524;2023-12-04T03:20:06;16.83;;;8.60;;
69565;SDS011;56777;55.930;37.524;2023-12-04T03:22:33;17.10;;;8.88;;
69565;SDS011;56777;55.930;37.524;2023-12-04T03:25:00;17.50;;;8.75;;
69565;SDS011;56777;55.930;37.524;2023-12-04T03:27:25;16.83;;;8.73;;
69565;SDS011;56777;55.930;37.524;2023-12-04T03:29:51;16.88;;;8.48;;
69565;SDS011;56777;55.930;37.524;2023-12-04T03:32:17;14.38;;;8.05;;
69565;SDS011;56777;55.930;37.524;2023-12-04T03:34:42;15.48;;;8.32;;
69565;SDS011;56777;55.930;37.524;2023-12-04T03:37:08;18.23;;;8.27;;
69565;SDS011;56777;55.930;37.524;2023-12-04T03:39:33;17.88;;;8.48;;
69565;SDS011;56777;55.930;37.524;2023-12-04T03:41:59;18.63;;;8.40;;
69565;SDS011;56777;55.930;37.524;2023-12-04T03:44:24;18.05;;;8.75;;
69565;SDS011;56777;55.930;37.524;2023-12-04T03:46:50;19.75;;;9.30;;
69565;SDS011;56777;55.930;37.524;2023-12-04T03:49:16;20.70;;;9.77;;
69565;SDS011;56777;55.930;37.524;2023-12-04T03:51:42;17.70;;;8.52;;
69565;SDS011;56777;55.930;37.524;2023-12-04T03:54:08;16.92;;;9.02;;
69565;SDS011;56777;55.930;37.524;2023-12-04T03:56:33;21.33;;;9.32;;
69565;SDS011;56777;55.930;37.524;2023-12-04T03:58:59;17.20;;;8.68;;
69565;SDS011;56777;55.930;37.524;2023-12-04T04:01:24;15.13;;;8.32;;
69565;SDS011;56777;55.930;37.524;2023-12-04T04:03:50;19.02;;;9.25;;
69565;SDS011;56777;55.930;37.524;2023-12-04T04:06:15;16.33;;;8.85;;
69565;SDS011;56777;55.930;37.524;2023-12-04T04:08:41;16.67;;;8.73;;
69565;SDS011;56777;55.930;37.524;2023-12-04T04:11:07;17.65;;;8.63;;
69565;SDS011;56777;55.930;37.524;2023-12-04T04:13:32;18.00;;;9.32;;
69565;SDS011;56777;55.930;37.524;2023-12-04T04:15:58;17.33;;;9.15;;
69565;SDS011;56777;55.930;37.524;2023-12-04T04:18:23;17.70;;;9.20;;
69565;SDS011;56777;55.930;37.524;2023-12-04T04:20:49;17.27;;;8.88;;
69565;SDS011;56777;55.930;37.524;2023-12-04T04:23:14;17.95;;;9.95;;
69565;SDS011;56777;55.930;37.524;2023-12-04T04:25:40;17.75;;;9.55;;
69565;SDS011;56777;55.930;37.524;2023-12-04T04:28:05;19.05;;;9.68;;
69565;SDS011;56777;55.930;37.524;2023-12-04T04:30:31;17.67;;;9.52;;
69565;SDS011;56777;55.930;37.524;2023-12-04T04:32:56;19.42;;;9.10;;
69565;SDS011;56777;55.930;37.524;2023-12-04T04:35:22;18.77;;;9.27;;
69565;SDS011;56777;55.930;37.524;2023-12-04T04:37:47;18.02;;;9.65;;
69565;SDS011;56777;55.930;37.524;2023-12-04T04:40:13;19.08;;;9.13;;
69565;SDS011;56777;55.930;37.524;2023-12-04T04:42:39;18.35;;;9.85;;
69565;SDS011;56777;55.930;37.524;2023-12-04T04:45:04;16.38;;;8.70;;
69565;SDS011;56777;55.930;37.524;2023-12-04T04:47:30;19.70;;;9.52;;
69565;SDS011;56777;55.930;37.524;2023-12-04T04:49:56;16.92;;;9.05;;
69565;SDS011;56777;55.930;37.524;2023-12-04T04:52:21;17.83;;;8.98;;
69565;SDS011;56777;55.930;37.524;2023-12-04T04:54:47;18.52;;;9.40;;
69565;SDS011;56777;55.930;37.524;2023-12-04T04:57:12;18.10;;;8.63;;
69565;SDS011;56777;55.930;37.524;2023-12-04T04:59:38;18.42;;;8.45;;
69565;SDS011;56777;55.930;37.524;2023-12-04T05:02:03;15.38;;;8.32;;
69565;SDS011;56777;55.930;37.524;2023-12-04T05:04:29;18.20;;;7.88;;
69565;SDS011;56777;55.930;37.524;2023-12-04T05:06:55;18.55;;;9.15;;
69565;SDS011;56777;55.930;37.524;2023-12-04T05:09:21;16.75;;;8.80;;
69565;SDS011;56777;55.930;37.524;2023-12-04T05:11:46;23.42;;;8.77;;
69565;SDS011;56777;55.930;37.524;2023-12-04T05:14:12;20.67;;;9.43;;
69565;SDS011;56777;55.930;37.524;2023-12-04T05:16:37;19.85;;;9.35;;
69565;SDS011;56777;55.930;37.524;2023-12-04T05:19:03;22.63;;;9.40;;
69565;SDS011;56777;55.930;37.524;2023-12-04T05:21:28;21.92;;;9.63;;
69565;SDS011;56777;55.930;37.524;2023-12-04T05:23:54;18.90;;;9.45;;
69565;SDS011;56777;55.930;37.524;2023-12-04T05:26:19;20.48;;;9.20;;
69565;SDS011;56777;55.930;37.524;2023-12-04T05:28:45;19.60;;;9.00;;
69565;SDS011;56777;55.930;37.524;2023-12-04T05:31:11;17.80;;;9.18;;
69565;SDS011;56777;55.930;37.524;2023-12-04T05:33:37;22.30;;;9.05;;
69565;SDS011;56777;55.930;37.524;2023-12-04T05:36:02;17.10;;;9.15;;
69565;SDS011;56777;55.930;37.524;2023-12-04T05:38:28;17.33;;;8.20;;
69565;SDS011;56777;55.930;37.524;2023-12-04T05:40:54;17.25;;;9.05;;
69565;SDS011;56777;55.930;37.524;2023-12-04T05:43:19;15.55;;;7.57;;
69565;SDS011;56777;55.930;37.524;2023-12-04T05:45:45;14.95;;;8.18;;
69565;SDS011;56777;55.930;37.524;2023-12-04T05:48:11;18.02;;;7.72;;
69565;SDS011;56777;55.930;37.524;2023-12-04T05:50:36;15.32;;;8.55;;
69565;SDS011;56777;55.930;37.524;2023-12-04T05:53:02;13.95;;;8.00;;
69565;SDS011;56777;55.930;37.524;2023-12-04T05:55:27;16.63;;;8.23;;
69565;SDS011;56777;55.930;37.524;2023-12-04T05:57:53;15.80;;;8.40;;
69565;SDS011;56777;55.930;37.524;2023-12-04T06:00:18;15.43;;;8.55;;
69565;SDS011;56777;55.930;37.524;2023-12-04T06:02:44;13.73;;;7.72;;
69565;SDS011;56777;55.930;37.524;2023-12-04T06:05:10;16.25;;;7.78;;
69565;SDS011;56777;55.930;37.524;2023-12-04T06:07:36;16.63;;;8.73;;
69565;SDS011;56777;55.930;37.524;2023-12-04T06:10:02;15.48;;;8.30;;
69565;SDS011;56777;55.930;37.524;2023-12-04T06:12:29;18.17;;;9.25;;
69565;SDS011;56777;55.930;37.524;2023-12-04T06:14:55;14.27;;;8.10;;
69565;SDS011;56777;55.930;37.524;2023-12-04T06:17:21;14.48;;;7.20;;
69565;SDS011;56777;55.930;37.524;2023-12-04T06:19:46;14.88;;;7.10;;
69565;SDS011;56777;55.930;37.524;2023-12-04T06:22:12;14.80;;;8.25;;
69565;SDS011;56777;55.930;37.524;2023-12-04T06:24:38;17.08;;;8.30;;
69565;SDS011;56777;55.930;37.524;2023-12-04T06:27:05;14.38;;;7.57;;
69565;SDS011;56777;55.930;37.524;2023-12-04T06:29:33;16.08;;;8.70;;
69565;SDS011;56777;55.930;37.524;2023-12-04T06:32:00;17.75;;;8.93;;
69565;SDS011;56777;55.930;37.524;2023-12-04T06:34:26;18.77;;;9.05;;
69565;SDS011;56777;55.930;37.524;2023-12-04T06:36:52;17.13;;;8.85;;
69565;SDS011;56777;55.930;37.524;2023-12-04T06:39:20;15.95;;;8.98;;
69565;SDS011;56777;55.930;37.524;2023-12-04T06:41:47;16.38;;;8.40;;
69565;SDS011;56777;55.930;37.524;2023-12-04T06:44:13;19.98;;;9.23;;
69565;SDS011;56777;55.930;37.524;2023-12-04T06:46:39;17.15;;;8.95;;
69565;SDS011;56777;55.930;37.524;2023-12-04T06:49:06;16.42;;;8.90;;
69565;SDS011;56777;55.930;37.524;2023-12-04T06:51:34;18.92;;;9.68;;
69565;SDS011;56777;55.930;37.524;2023-12-04T06:53:59;18.15;;;9.18;;
69565;SDS011;56777;55.930;37.524;2023-12-04T06:56:25;15.98;;;8.73;;
69565;SDS011;56777;55.930;37.524;2023-12-04T06:58:51;18.90;;;10.27;;
69565;SDS011;56777;55.930;37.524;2023-12-04T07:01:16;15.80;;;8.85;;
69565;SDS011;56777;55.930;37.524;2023-12-04T07:03:42;17.58;;;9.18;;
69565;SDS011;56777;55.930;37.524;2023-12-04T07:06:07;17.58;;;9.00;;
69565;SDS011;56777;55.930;37.524;2023-12-04T07:08:33;20.23;;;10.05;;
69565;SDS011;56777;55.930;37.524;2023-12-04T07:10:59;16.42;;;8.98;;
69565;SDS011;56777;55.930;37.524;2023-12-04T07:13:24;18.00;;;9.30;;
69565;SDS011;56777;55.930;37.524;2023-12-04T07:15:50;21.13;;;10.18;;
69565;SDS011;56777;55.930;37.524;2023-12-04T07:18:16;16.00;;;9.20;;
69565;SDS011;56777;55.930;37.524;2023-12-04T07:20:41;24.45;;;10.77;;
69565;SDS011;56777;55.930;37.524;2023-12-04T07:23:07;21.58;;;9.90;;
69565;SDS011;56777;55.930;37.524;2023-12-04T07:25:32;18.40;;;9.43;;
69565;SDS011;56777;55.930;37.524;2023-12-04T07:27:59;22.40;;;11.02;;
69565;SDS011;56777;55.930;37.524;2023-12-04T07:30:25;17.23;;;9.15;;
69565;SDS011;56777;55.930;37.524;2023-12-04T07:32:51;22.13;;;10.52;;
69565;SDS011;56777;55.930;37.524;2023-12-04T07:35:18;19.13;;;10.18;;
69565;SDS011;56777;55.930;37.524;2023-12-04T07:37:44;20.92;;;10.18;;
69565;SDS011;56777;55.930;37.524;2023-12-04T07:40:10;19.30;;;9.90;;
69565;SDS011;56777;55.930;37.524;2023-12-04T07:42:36;22.38;;;10.95;;
69565;SDS011;56777;55.930;37.524;2023-12-04T07:45:02;22.38;;;12.20;;
69565;SDS011;56777;55.930;37.524;2023-12-04T07:47:28;19.05;;;10.55;;
69565;SDS011;56777;55.930;37.524;2023-12-04T07:49:53;20.08;;;10.48;;
69565;SDS011;56777;55.930;37.524;2023-12-04T07:52:19;21.67;;;11.02;;
69565;SDS011;56777;55.930;37.524;2023-12-04T07:54:45;20.45;;;10.68;;
69565;SDS011;56777;55.930;37.524;2023-12-04T07:57:10;23.35;;;11.38;;
69565;SDS011;56777;55.930;37.524;2023-12-04T07:59:36;20.73;;;11.23;;
69565;SDS011;56777;55.930;37.524;2023-12-04T08:02:01;23.05;;;11.38;;
69565;SDS011;56777;55.930;37.524;2023-12-04T08:04:27;22.67;;;10.82;;
69565;SDS011;56777;55.930;37.524;2023-12-04T08:06:52;21.65;;;10.60;;
69565;SDS011;56777;55.930;37.524;2023-12-04T08:09:18;24.73;;;10.93;;
69565;SDS011;56777;55.930;37.524;2023-12-04T08:11:44;21.73;;;10.45;;
69565;SDS011;56777;55.930;37.524;2023-12-04T08:14:10;22.60;;;11.70;;
69565;SDS011;56777;55.930;37.524;2023-12-04T08:16:36;27.45;;;11.13;;
69565;SDS011;56777;55.930;37.524;2023-12-04T08:19:02;23.05;;;11.63;;
69565;SDS011;56777;55.930;37.524;2023-12-04T08:21:28;23.88;;;11.38;;
69565;SDS011;56777;55.930;37.524;2023-12-04T08:23:53;20.95;;;10.52;;
69565;SDS011;56777;55.930;37.524;2023-12-04T08:26:22;22.10;;;10.70;;
69565;SDS011;56777;55.930;37.524;2023-12-04T08:28:49;21.75;;;10.80;;
69565;SDS011;56777;55.930;37.524;2023-12-04T08:31:17;24.58;;;11.73;;
69565;SDS011;56777;55.930;37.524;2023-12-04T08:33:43;27.75;;;11.80;;
69565;SDS011;56777;55.930;37.524;2023-12-04T08:36:09;20.83;;;11.23;;
69565;SDS011;56777;55.930;37.524;2023-12-04T08:38:36;21.30;;;10.68;;
69565;SDS011;56777;55.930;37.524;2023-12-04T08:41:03;22.40;;;11.68;;
69565;SDS011;56777;55.930;37.524;2023-12-04T08:43:29;24.50;;;12.43;;
69565;SDS011;56777;55.930;37.524;2023-12-04T08:45:56;20.00;;;11.25;;
69565;SDS011;56777;55.930;37.524;2023-12-04T08:48:22;20.42;;;10.80;;
69565;SDS011;56777;55.930;37.524;2023-12-04T08:50:47;23.30;;;11.40;;
69565;SDS011;56777;55.930;37.524;2023-12-04T08:53:13;23.70;;;11.93;;
69565;SDS011;56777;55.930;37.524;2023-12-04T08:55:39;22.17;;;11.93;;
69565;SDS011;56777;55.930;37.524;2023-12-04T08:58:05;24.35;;;11.52;;
69565;SDS011;56777;55.930;37.524;2023-12-04T09:00:31;22.40;;;11.15;;
69565;SDS011;56777;55.930;37.524;2023-12-04T09:02:57;17.33;;;9.30;;
69565;SDS011;56777;55.930;37.524;2023-12-04T09:05:23;20.90;;;10.80;;
69565;SDS011;56777;55.930;37.524;2023-12-04T09:07:48;20.67;;;10.60;;
69565;SDS011;56777;55.930;37.524;2023-12-04T09:10:14;21.95;;;10.88;;
69565;SDS011;56777;55.930;37.524;2023-12-04T09:12:40;22.08;;;11.63;;
69565;SDS011;56777;55.930;37.524;2023-12-04T09:15:06;21.60;;;10.70;;
69565;SDS011;56777;55.930;37.524;2023-12-04T09:17:32;20.48;;;10.55;;
69565;SDS011;56777;55.930;37.524;2023-12-04T09:19:58;20.65;;;10.82;;
69565;SDS011;56777;55.930;37.524;2023-12-04T09:22:23;23.23;;;11.27;;
69565;SDS011;56777;55.930;37.524;2023-12-04T09:24:49;21.15;;;10.93;;
69565;SDS011;56777;55.930;37.524;2023-12-04T09:27:15;24.85;;;11.60;;
69565;SDS011;56777;55.930;37.524;2023-12-04T09:29:42;22.60;;;11.82;;
69565;SDS011;56777;55.930;37.524;2023-12-04T09:32:08;21.42;;;11.07;;
69565;SDS011;56777;55.930;37.524;2023-12-04T09:34:34;23.67;;;11.55;;
69565;SDS011;56777;55.930;37.524;2023-12-04T09:37:00;24.30;;;11.23;;
69565;SDS011;56777;55.930;37.524;2023-12-04T09:39:26;23.30;;;12.20;;
69565;SDS011;56777;55.930;37.524;2023-12-04T09:41:51;25.63;;;11.60;;
69565;SDS011;56777;55.930;37.524;2023-12-04T09:44:17;23.42;;;11.35;;
69565;SDS011;56777;55.930;37.524;2023-12-04T09:46:44;24.77;;;11.50;;
69565;SDS011;56777;55.930;37.524;2023-12-04T09:49:10;21.17;;;10.75;;
69565;SDS011;56777;55.930;37.524;2023-12-04T09:51:37;21.80;;;10.93;;
69565;SDS011;56777;55.930;37.524;2023-12-04T09:54:03;23.75;;;11.30;;
69565;SDS011;56777;55.930;37.524;2023-12-04T09:56:29;23.73;;;10.93;;
69565;SDS011;56777;55.930;37.524;2023-12-04T09:58:57;24.60;;;11.13;;
69565;SDS011;56777;55.930;37.524;2023-12-04T10:01:25;21.10;;;10.23;;
69565;SDS011;56777;55.930;37.524;2023-12-04T10:03:52;25.52;;;11.45;;
69565;SDS011;56777;55.930;37.524;2023-12-04T10:06:18;23.63;;;11.25;;
69565;SDS011;56777;55.930;37.524;2023-12-04T10:08:44;21.15;;;10.23;;
69565;SDS011;56777;55.930;37.524;2023-12-04T10:11:11;22.83;;;11.13;;
69565;SDS011;56777;55.930;37.524;2023-12-04T10:13:37;22.25;;;11.57;;
69565;SDS011;56777;55.930;37.524;2023-12-04T10:16:05;22.40;;;11.57;;
69565;SDS011;56777;55.930;37.524;2023-12-04T10:18:31;20.17;;;10.07;;
69565;SDS011;56777;55.930;37.524;2023-12-04T10:20:57;20.92;;;11.50;;
69565;SDS011;56777;55.930;37.524;2023-12-04T10:23:36;24.17;;;11.70;;
69565;SDS011;56777;55.930;37.524;2023-12-04T10:26:06;28.15;;;12.55;;
69565;SDS011;56777;55.930;37.524;2023-12-04T10:28:33;25.60;;;11.95;;
69565;SDS011;56777;55.930;37.524;2023-12-04T10:30:59;20.45;;;10.00;;
69565;SDS011;56777;55.930;37.524;2023-12-04T10:33:25;26.75;;;11.77;;
69565;SDS011;56777;55.930;37.524;2023-12-04T10:35:54;23.17;;;11.43;;
69565;SDS011;56777;55.930;37.524;2023-12-04T10:38:22;21.02;;;11.23;;
69565;SDS011;56777;55.930;37.524;2023-12-04T10:40:48;24.00;;;12.25;;
69565;SDS011;56777;55.930;37.524;2023-12-04T10:43:16;24.08;;;11.52;;
69565;SDS011;56777;55.930;37.524;2023-12-04T10:45:44;24.70;;;10.88;;
69565;SDS011;56777;55.930;37.524;2023-12-04T10:48:11;25.13;;;10.85;;
69565;SDS011;56777;55.930;37.524;2023-12-04T10:50:38;25.55;;;11.57;;
69565;SDS011;56777;55.930;37.524;2023-12-04T10:53:06;23.00;;;10.75;;
69565;SDS011;56777;55.930;37.524;2023-12-04T10:55:33;24.33;;;11.65;;
69565;SDS011;56777;55.930;37.524;2023-12-04T10:58:01;22.13;;;11.18;;
69565;SDS011;56777;55.930;37.524;2023-12-04T11:00:29;24.08;;;11.57;;
69565;SDS011;56777;55.930;37.524;2023-12-04T11:03:03;20.52;;;10.95;;
69565;SDS011;56777;55.930;37.524;2023-12-04T11:05:32;22.15;;;10.85;;
69565;SDS011;56777;55.930;37.524;2023-12-04T11:08:02;21.35;;;10.73;;
69565;SDS011;56777;55.930;37.524;2023-12-04T11:10:31;23.80;;;10.82;;
69565;SDS011;56777;55.930;37.524;2023-12-04T11:15:47;23.33;;;10.70;;
69565;SDS011;56777;55.930;37.524;2023-12-04T11:18:15;20.00;;;10.45;;
69565;SDS011;56777;55.930;37.524;2023-12-04T11:21:25;16.77;;;8.68;;
69565;SDS011;56777;55.930;37.524;2023-12-04T11:23:35;17.67;;;8.68;;
69565;SDS011;56777;55.930;37.524;2023-12-04T11:26:05;17.05;;;8.93;;
69565;SDS011;56777;55.930;37.524;2023-12-04T11:28:33;16.67;;;8.65;;
69565;SDS011;56777;55.930;37.524;2023-12-04T11:31:01;15.80;;;8.57;;
69565;SDS011;56777;55.930;37.524;2023-12-04T11:33:27;14.38;;;7.65;;
69565;SDS011;56777;55.930;37.524;2023-12-04T11:35:53;14.05;;;7.45;;
69565;SDS011;56777;55.930;37.524;2023-12-04T11:38:31;15.82;;;8.15;;
69565;SDS011;56777;55.930;37.524;2023-12-04T11:40:58;15.77;;;8.45;;
69565;SDS011;56777;55.930;37.524;2023-12-04T11:43:24;15.30;;;7.93;;
69565;SDS011;56777;55.930;37.524;2023-12-04T11:45:51;16.55;;;9.02;;
69565;SDS011;56777;55.930;37.524;2023-12-04T11:48:22;24.00;;;12.45;;
69565;SDS011;56777;55.930;37.524;2023-12-04T11:50:51;25.88;;;11.88;;
69565;SDS011;56777;55.930;37.524;2023-12-04T11:53:17;16.95;;;9.00;;
69565;SDS011;56777;55.930;37.524;2023-12-04T11:55:43;15.88;;;8.93;;
69565;SDS011;56777;55.930;37.524;2023-12-04T11:58:09;18.02;;;9.38;;
69565;SDS011;56777;55.930;37.524;2023-12-04T12:00:36;15.52;;;8.07;;
69565;SDS011;56777;55.930;37.524;2023-12-04T12:03:03;15.82;;;8.05;;
69565;SDS011;56777;55.930;37.524;2023-12-04T12:05:32;19.08;;;8.50;;
69565;SDS011;56777;55.930;37.524;2023-12-04T12:08:05;18.98;;;9.52;;
69565;SDS011;56777;55.930;37.524;2023-12-04T12:10:31;15.10;;;8.20;;
69565;SDS011;56777;55.930;37.524;2023-12-04T12:13:00;16.60;;;7.85;;
69565;SDS011;56777;55.930;37.524;2023-12-04T12:15:27;16.70;;;8.35;;
69565;SDS011;56777;55.930;37.524;2023-12-04T12:17:53;15.25;;;7.72;;
69565;SDS011;56777;55.930;37.524;2023-12-04T12:20:19;14.10;;;7.88;;
69565;SDS011;56777;55.930;37.524;2023-12-04T12:22:48;13.30;;;7.72;;
69565;SDS011;56777;55.930;37.524;2023-12-04T12:25:14;13.13;;;7.85;;
69565;SDS011;56777;55.930;37.524;2023-12-04T12:27:40;15.30;;;8.80;;
69565;SDS011;56777;55.930;37.524;2023-12-04T12:30:06;16.55;;;8.85;;
69565;SDS011;56777;55.930;37.524;2023-12-04T12:32:36;16.20;;;8.60;;
69565;SDS011;56777;55.930;37.524;2023-12-04T12:35:04;18.42;;;8.75;;
69565;SDS011;56777;55.930;37.524;2023-12-04T12:37:32;15.25;;;8.35;;
69565;SDS011;56777;55.930;37.524;2023-12-04T12:39:58;15.98;;;8.35;;
69565;SDS011;56777;55.930;37.524;2023-12-04T12:42:24;18.75;;;9.50;;
69565;SDS011;56777;55.930;37.524;2023-12-04T12:44:51;18.42;;;8.68;;
69565;SDS011;56777;55.930;37.524;2023-12-04T12:47:19;16.50;;;8.77;;
69565;SDS011;56777;55.930;37.524;2023-12-04T12:49:45;14.75;;;8.35;;
69565;SDS011;56777;55.930;37.524;2023-12-04T12:52:11;14.68;;;7.70;;
69565;SDS011;56777;55.930;37.524;2023-12-04T12:54:37;17.65;;;8.60;;
69565;SDS011;56777;55.930;37.524;2023-12-04T12:57:06;17.70;;;8.38;;
69565;SDS011;56777;55.930;37.524;2023-12-04T12:59:32;19.65;;;8.60;;
69565;SDS011;56777;55.930;37.524;2023-12-04T13:01:58;16.15;;;8.50;;
69565;SDS011;56777;55.930;37.524;2023-12-04T13:07:03;20.40;;;8.15;;
69565;SDS011;56777;55.930;37.524;2023-12-04T13:09:31;16.77;;;8.88;;
69565;SDS011;56777;55.930;37.524;2023-12-04T13:11:57;19.48;;;9.18;;
69565;SDS011;56777;55.930;37.524;2023-12-04T13:14:24;19.83;;;9.82;;
69565;SDS011;56777;55.930;37.524;2023-12-04T13:16:50;18.85;;;9.02;;
69565;SDS011;56777;55.930;37.524;2023-12-04T13:19:16;19.33;;;9.25;;
69565;SDS011;56777;55.930;37.524;2023-12-04T13:21:42;20.33;;;9.63;;
69565;SDS011;56777;55.930;37.524;2023-12-04T13:24:09;18.25;;;8.60;;
69565;SDS011;56777;55.930;37.524;2023-12-04T13:26:35;15.55;;;8.25;;
69565;SDS011;56777;55.930;37.524;2023-12-04T13:29:01;21.08;;;9.55;;
69565;SDS011;56777;55.930;37.524;2023-12-04T13:31:27;20.08;;;9.18;;
69565;SDS011;56777;55.930;37.524;2023-12-04T13:33:53;18.25;;;9.75;;
69565;SDS011;56777;55.930;37.524;2023-12-04T13:36:18;16.48;;;9.52;;
69565;SDS011;56777;55.930;37.524;2023-12-04T13:38:44;18.63;;;8.80;;
69565;SDS011;56777;55.930;37.524;2023-12-04T13:41:10;16.52;;;8.93;;
69565;SDS011;56777;55.930;37.524;2023-12-04T13:43:54;18.00;;;9.43;;
69565;SDS011;56777;55.930;37.524;2023-12-04T13:46:21;20.05;;;9.90;;
69565;SDS011;56777;55.930;37.524;2023-12-04T13:48:47;19.35;;;9.95;;
69565;SDS011;56777;55.930;37.524;2023-12-04T13:51:13;17.90;;;9.43;;
69565;SDS011;56777;55.930;37.524;2023-12-04T13:53:39;17.05;;;10.02;;
69565;SDS011;56777;55.930;37.524;2023-12-04T13:56:10;19.25;;;9.43;;
69565;SDS011;56777;55.930;37.524;2023-12-04T13:58:48;18.15;;;9.35;;
69565;SDS011;56777;55.930;37.524;2023-12-04T14:01:24;18.70;;;9.45;;
69565;SDS011;56777;55.930;37.524;2023-12-04T14:03:54;18.70;;;10.15;;
69565;SDS011;56777;55.930;37.524;2023-12-04T14:06:28;18.27;;;8.75;;
69565;SDS011;56777;55.930;37.524;2023-12-04T14:08:53;16.20;;;8.70;;
69565;SDS011;56777;55.930;37.524;2023-12-04T14:11:19;19.40;;;9.60;;
69565;SDS011;56777;55.930;37.524;2023-12-04T14:13:45;19.08;;;9.00;;
69565;SDS011;56777;55.930;37.524;2023-12-04T14:16:11;22.85;;;9.18;;
69565;SDS011;56777;55.930;37.524;2023-12-04T14:18:37;16.98;;;8.98;;